Map

Track Data

SID SEASON NUMBER BASIN SUBBASIN NAME ISO_TIME NATURE LAT LON WMO_WIND WMO_PRES WMO_AGENCY TRACK_TYPE DIST2LAND LANDFALL IFLAG USA_AGENCY USA_ATCF_ID USA_LAT USA_LON USA_RECORD USA_STATUS USA_WIND USA_PRES USA_SSHS USA_R34_NE USA_R34_SE USA_R34_SW USA_R34_NW USA_R50_NE USA_R50_SE USA_R50_SW USA_R50_NW USA_R64_NE USA_R64_SE USA_R64_SW USA_R64_NW USA_POCI USA_ROCI USA_RMW USA_EYE TOKYO_LAT TOKYO_LON TOKYO_GRADE TOKYO_WIND TOKYO_PRES TOKYO_R50_DIR TOKYO_R50_LONG TOKYO_R50_SHORT TOKYO_R30_DIR TOKYO_R30_LONG TOKYO_R30_SHORT TOKYO_LAND CMA_LAT CMA_LON CMA_CAT CMA_WIND CMA_PRES HKO_LAT HKO_LON HKO_CAT HKO_WIND HKO_PRES NEWDELHI_LAT NEWDELHI_LON NEWDELHI_GRADE NEWDELHI_WIND NEWDELHI_PRES NEWDELHI_CI NEWDELHI_DP NEWDELHI_POCI REUNION_LAT REUNION_LON REUNION_TYPE REUNION_WIND REUNION_PRES REUNION_TNUM REUNION_CI REUNION_RMW REUNION_R34_NE REUNION_R34_SE REUNION_R34_SW REUNION_R34_NW REUNION_R50_NE REUNION_R50_SE REUNION_R50_SW REUNION_R50_NW REUNION_R64_NE REUNION_R64_SE REUNION_R64_SW REUNION_R64_NW BOM_LAT BOM_LON BOM_TYPE BOM_WIND BOM_PRES BOM_TNUM BOM_CI BOM_RMW BOM_R34_NE BOM_R34_SE BOM_R34_SW BOM_R34_NW BOM_R50_NE BOM_R50_SE BOM_R50_SW BOM_R50_NW BOM_R64_NE BOM_R64_SE BOM_R64_SW BOM_R64_NW BOM_ROCI BOM_POCI BOM_EYE BOM_POS_METHOD BOM_PRES_METHOD NADI_LAT NADI_LON NADI_CAT NADI_WIND NADI_PRES WELLINGTON_LAT WELLINGTON_LON WELLINGTON_WIND WELLINGTON_PRES DS824_LAT DS824_LON DS824_STAGE DS824_WIND DS824_PRES TD9636_LAT TD9636_LON TD9636_STAGE TD9636_WIND TD9636_PRES TD9635_LAT TD9635_LON TD9635_WIND TD9635_PRES TD9635_ROCI NEUMANN_LAT NEUMANN_LON NEUMANN_CLASS NEUMANN_WIND NEUMANN_PRES MLC_LAT MLC_LON MLC_CLASS MLC_WIND MLC_PRES USA_GUST BOM_GUST BOM_GUST_PER REUNION_GUST REUNION_GUST_PER USA_SEAHGT USA_SEARAD_NE USA_SEARAD_SE USA_SEARAD_SW USA_SEARAD_NW STORM_SPEED STORM_DIR
1970206N25150 1970 71 WP MM NOT_NAMED 1970-07-25 00:00:00 TS 25.4000 149.500 main 1397 1352 __O___________ -1 25.4000 149.500 1 23 1006 8 319
1970206N25150 1970 71 WP MM NOT_NAMED 1970-07-25 03:00:00 TS 25.7102 149.201 main 1352 1313 __P___________ -1 25.7102 149.201 1 23 1006 8 323
1970206N25150 1970 71 WP MM NOT_NAMED 1970-07-25 06:00:00 TS 26.0000 149.000 main 1313 1295 __O___________ -1 26.0000 149.000 1 23 1006 6 339
1970206N25150 1970 71 WP MM NOT_NAMED 1970-07-25 09:00:00 TS 26.2574 148.962 main 1286 1269 __P___________ -1 26.2574 148.962 1 23 1006 5 2
1970206N25150 1970 71 WP MM NOT_NAMED 1970-07-25 12:00:00 TS 26.5000 149.000 main 1269 1251 __O___________ -1 26.5000 149.000 1 23 1006 5 0
1970206N25150 1970 71 WP MM NOT_NAMED 1970-07-25 15:00:00 TS 26.7124 148.963 main 1251 1225 __P___________ -1 26.7124 148.963 1 26 1006 5 2
1970206N25150 1970 71 WP MM NOT_NAMED 1970-07-25 18:00:00 TS 27.0000 149.000 main 1225 1198 __O___________ -1 27.0000 149.000 1 29 1006 7 15
1970206N25150 1970 71 WP MM NOT_NAMED 1970-07-25 21:00:00 TS 27.4248 149.176 main 1204 1175 __P___________ -1 27.4248 149.176 1 29 1006 11 24
1970206N25150 1970 71 WP MM NOT_NAMED 1970-07-26 00:00:00 TS 28.0000 149.500 main 1175 1149 __O___________ -1 28.0000 149.500 1 29 1006 15 27
1970206N25150 1970 71 WP MM NOT_NAMED 1970-07-26 03:00:00 TS 28.7350 149.947 main 1149 1131 __P___________ -1 28.7350 149.947 1 29 1006 17 30
1970206N25150 1970 71 WP MM NOT_NAMED 1970-07-26 06:00:00 TS 29.5000 150.500 main 1132 1125 __O___________ -1 29.5000 150.500 1 29 1006 17 36
1970206N25150 1970 71 WP MM NOT_NAMED 1970-07-26 09:00:00 TS 30.1148 151.079 main 1136 1129 __P___________ -1 30.1148 151.079 1 29 1007 16 41
1970206N25150 1970 71 WP MM NOT_NAMED 1970-07-26 12:00:00 TS 30.7000 151.700 main 1146 1146 __O___________ -1 30.7000 151.700 1 29 1008 16 42
1970206N25150 1970 71 WP MM NOT_NAMED 1970-07-26 15:00:00 TS 31.3271 152.329 main 1162 1162 __P___________ -1 31.3271 152.329 1 29 1008 17 41
1970206N25150 1970 71 WP MM NOT_NAMED 1970-07-26 18:00:00 TS 32.0000 153.000 main 1187 1187 __O___________ -1 32.0000 153.000 1 29 1008 20 40
1970206N25150 1970 71 WP MM NOT_NAMED 1970-07-26 21:00:00 TS 32.8184 153.822 main 1225 1225 __P___________ -1 32.8184 153.822 1 29 1008 20 40
1970206N25150 1970 71 WP MM NOT_NAMED 1970-07-27 00:00:00 TS 33.5000 154.500 main 1264 1264 __O___________ -1 33.5000 154.500 1 29 1008 12 39
1970206N25150 1970 71 WP MM NOT_NAMED 1970-07-27 03:00:00 TS 33.7667 154.750 main 1274 1274 __P___________ -1 33.7667 154.750 1 26 1008 5 32
1970206N25150 1970 71 WP MM NOT_NAMED 1970-07-27 06:00:00 TS 33.9000 154.800 main 1281 1276 __O___________ -1 33.9000 154.800 1 23 1008 5 15
1970206N25150 1970 71 WP MM NOT_NAMED 1970-07-27 09:00:00 TS 34.2149 154.893 main 1278 1267 __P___________ -1 34.2149 154.893 1 23 1008 6 15
1970206N25150 1970 71 WP MM NOT_NAMED 1970-07-27 12:00:00 TS 34.5000 155.000 main 1267 1258 __O___________ -1 34.5000 155.000 1 23 1008 5 28
1970206N25150 1970 71 WP MM NOT_NAMED 1970-07-27 15:00:00 TS 34.6374 155.170 main 1269 1261 __P___________ -1 34.6374 155.170 1 23 1008 4 59
1970206N25150 1970 71 WP MM NOT_NAMED 1970-07-27 18:00:00 TS 34.7000 155.400 main 1272 1272 __O___________ -1 34.7000 155.400 1 23 1008 4 72
1970206N25150 1970 71 WP MM NOT_NAMED 1970-07-27 21:00:00 TS 34.7725 155.677 main 1281 1281 __P___________ -1 34.7725 155.677 1 23 1009 5 79
1970206N25150 1970 71 WP MM NOT_NAMED 1970-07-28 00:00:00 TS 34.8000 156.000 main 1299 1299 __O___________ -1 34.8000 156.000 1 23 1010 6 89
1970206N25150 1970 71 WP MM NOT_NAMED 1970-07-28 03:00:00 TS 34.7801 156.358 main 1323 1323 __P___________ -1 34.7801 156.358 1 23 1010 6 100
1970206N25150 1970 71 WP MM NOT_NAMED 1970-07-28 06:00:00 TS 34.7000 156.700 main 1348 1348 __O___________ -1 34.7000 156.700 1 23 1010 6 114
1970206N25150 1970 71 WP MM NOT_NAMED 1970-07-28 09:00:00 TS 34.5499 156.973 main 1380 1380 __P___________ -1 34.5499 156.973 1 23 1010 5 126
1970206N25150 1970 71 WP MM NOT_NAMED 1970-07-28 12:00:00 TS 34.4000 157.200 main 1398 1398 __O___________ -1 34.4000 157.200 1 23 1010 4 121
1970206N25150 1970 71 WP MM NOT_NAMED 1970-07-28 15:00:00 TS 34.3349 157.407 main 1416 1416 __P___________ -1 34.3349 157.407 1 23 1010 3 107
1970206N25150 1970 71 WP MM NOT_NAMED 1970-07-28 18:00:00 TS 34.3000 157.600 main 1423 1423 __O___________ -1 34.3000 157.600 1 23 1010 3 105
1970206N25150 1970 71 WP MM NOT_NAMED 1970-07-28 21:00:00 TS 34.2499 157.792 main 1441 1441 __P___________ -1 34.2499 157.792 1 23 1010 3 107
1970206N25150 1970 71 WP MM NOT_NAMED 1970-07-29 00:00:00 TS 34.2000 158.000 main 1450 1450 __O___________ -1 34.2000 158.000 1 23 1010 4 105
1970206N25150 1970 71 WP MM NOT_NAMED 1970-07-29 03:00:00 TS 34.1500 158.242 main 1458 1468 __P___________ -1 34.1500 158.242 1 23 1010 4 104
1970206N25150 1970 71 WP MM NOT_NAMED 1970-07-29 06:00:00 TS 34.1000 158.500 main 1480 1480 __O___________ -1 34.1000 158.500 1 23 1010 5 108
1970206N25150 1970 71 WP MM NOT_NAMED 1970-07-29 09:00:00 TS 34.0051 158.795 main 1503 1503 __P___________ -1 34.0051 158.795 1 23 1010 4 104
1970206N25150 1970 71 WP MM NOT_NAMED 1970-07-29 12:00:00 TS 34.0000 159.000 main 1512 1497 __O___________ -1 34.0000 159.000 1 23 1010 3 45
1970206N25150 1970 71 WP MM NOT_NAMED 1970-07-29 15:00:00 TS 34.2196 159.055 main 1497 1459 __P___________ -1 34.2196 159.055 1 23 1011 5 351
1970206N25150 1970 71 WP MM NOT_NAMED 1970-07-29 18:00:00 TS 34.5000 158.900 main 1459 1421 __O___________ -1 34.5000 158.900 1 23 1012 7 318
1970206N25150 1970 71 WP MM NOT_NAMED 1970-07-29 21:00:00 TS 34.7329 158.504 main 1421 1390 __P___________ -1 34.7329 158.504 1 23 1012 8 292
1970206N25150 1970 71 WP MM NOT_NAMED 1970-07-30 00:00:00 TS 34.8000 158.000 main 1390 1382 __O___________ -1 34.8000 158.000 1 23 1012 9 257
1970206N25150 1970 71 WP MM NOT_NAMED 1970-07-30 03:00:00 TS 34.5376 157.471 main 1399 1395 __P___________ -1 34.5376 157.471 1 23 1012 9 228
1970206N25150 1970 71 WP MM NOT_NAMED 1970-07-30 06:00:00 TS 34.2000 157.200 main 1418 1418 __O___________ -1 34.2000 157.200 1 23 1012 5 175
1970206N25150 1970 71 WP MM NOT_NAMED 1970-07-30 09:00:00 TS 34.0255 157.519 main 1450 1450 __P___________ -1 34.0255 157.519 1 23 1012 7 107
1970206N25150 1970 71 WP MM NOT_NAMED 1970-07-30 12:00:00 TS 34.0000 158.000 main 1469 1464 __O___________ -1 34.0000 158.000 1 23 1012 6 78
1970206N25150 1970 71 WP MM NOT_NAMED 1970-07-30 15:00:00 TS 34.1622 158.262 main 1462 1442 __P___________ -1 34.1622 158.262 1 23 1012 5 32
1970206N25150 1970 71 WP MM NOT_NAMED 1970-07-30 18:00:00 TS 34.4000 158.300 main 1442 1410 __O___________ -1 34.4000 158.300 1 23 1012 5 332
1970206N25150 1970 71 WP MM NOT_NAMED 1970-07-30 21:00:00 TS 34.5729 158.003 main 1410 1383 __P___________ -1 34.5729 158.003 1 23 1013 6 298
1970206N25150 1970 71 WP MM NOT_NAMED 1970-07-31 00:00:00 TS 34.7000 157.600 main 1383 1365 __O___________ -1 34.7000 157.600 1 23 1014 5 290
1970206N25150 1970 71 WP MM NOT_NAMED 1970-07-31 03:00:00 TS 34.7573 157.377 main 1365 1357 __P___________ -1 34.7573 157.377 1 21 1014 3 287
1970206N25150 1970 71 WP MM NOT_NAMED 1970-07-31 06:00:00 TS 34.8000 157.200 main 1357 1339 __O___________ -1 34.8000 157.200 0 19 1014 4 292
1970206N25150 1970 71 WP MM NOT_NAMED 1970-07-31 09:00:00 TS 34.8926 156.963 main 1339 1322 __P___________ -1 34.8926 156.963 0 19 1014 4 301
1970206N25150 1970 71 WP MM NOT_NAMED 1970-07-31 12:00:00 TS 35.0000 156.800 main 1322 1312 __O___________ -1 35.0000 156.800 0 19 1014 2 327
1970206N25150 1970 71 WP MM NOT_NAMED 1970-07-31 15:00:00 TS 35.0925 156.812 main 1312 1305 __P___________ -1 35.0925 156.812 0 19 1014 2 23
1970206N25150 1970 71 WP MM NOT_NAMED 1970-07-31 18:00:00 TS 35.2000 156.900 main 1305 1295 __O___________ -1 35.2000 156.900 0 19 1014 3 30
1970206N25150 1970 71 WP MM NOT_NAMED 1970-07-31 21:00:00 TS 35.3200 156.972 main 1299 1279 __P___________ -1 35.3200 156.972 0 19 1013 3 14
1970206N25150 1970 71 WP MM NOT_NAMED 1970-08-01 00:00:00 TS 35.5000 157.000 main 1279 1245 __O___________ -1 35.5000 157.000 0 19 1012 5 353
1970206N25150 1970 71 WP MM NOT_NAMED 1970-08-01 03:00:00 TS 35.7850 156.900 main 1245 1211 __P___________ -1 35.7851 156.900 0 19 1012 6 345
1970206N25150 1970 71 WP MM NOT_NAMED 1970-08-01 06:00:00 TS 36.1000 156.800 main 1211 1192 __O___________ -1 36.1000 156.800 0 19 1012 6 353
1970206N25150 1970 71 WP MM NOT_NAMED 1970-08-01 09:00:00 TS 36.3500 156.812 main 1192 1166 __P___________ -1 36.3500 156.812 0 19 1012 5 9
1970206N25150 1970 71 WP MM NOT_NAMED 1970-08-01 12:00:00 TS 36.6000 156.900 main 1166 1142 __O___________ -1 36.6000 156.900 0 19 1012 6 17
1970206N25150 1970 71 WP MM NOT_NAMED 1970-08-01 15:00:00 TS 36.9150 157.035 main 1142 1122 __P___________ -1 36.9150 157.035 0 19 1011 6 22
1970206N25150 1970 71 WP MM NOT_NAMED 1970-08-01 18:00:00 TS 37.2000 157.200 main 1122 1107 __O___________ -1 37.2000 157.200 0 19 1010 5 29
1970206N25150 1970 71 WP MM NOT_NAMED 1970-08-01 21:00:00 TS 37.3825 157.355 main 1112 1103 __P___________ -1 37.3825 157.355 0 19 1009 4 38
1970206N25150 1970 71 WP MM NOT_NAMED 1970-08-02 00:00:00 TS 37.5000 157.500 main 1108 __O___________ -1 37.5000 157.500 0 19 1008 3 44

Digital Typhoon Data and Search

About IBTrACS Database

This database is a web-friendly format of International Best Track Archive for Climate Stewardship (IBTrACS), a global best track data archive curated by NOAA dating back to 1842.

Updated: 2021-10-19